CheckWX is a tool to help pilots better visualize weather data.  It is not intended as a substitute for an official pre-flight weather briefing.

09:45:16 UTC

KGRR METAR
Gerald R Ford International Airport
Grand Rapids, Michigan, USA
Current

52 mins ago

KGRR 190853Z AUTO 30011KT 10SM CLR M07/M13 A3039 RMK AO2 SLP304 T10671133 53028
Observed
Feb-19 @ 08:53 UTC
Wind
  • 300° at 11 KTS
Visibility
10 SM
Flight Rules
VFR
Cloud Levels
  • Clear skies
Temperature
-7°C / 19°F
Dewpoint
-13°C / 9°F
Humidity
63%
Altimeter
30.39" Hg
Pressure
1029.12 hPa
Previous

2 hours ago

KGRR 190753Z AUTO 32018G24KT 10SM OVC030 M05/M12 A3037 RMK AO2 SLP293 T10501117
Observed
Feb-19 @ 07:53 UTC
Wind
  • 320° at 18 KTS
  • Gusting to 24 KTS
Visibility
10 SM
Flight Rules
MVFR
Cloud Levels
  • Overcast at 3,000' AGL
Temperature
-5°C / 23°F
Dewpoint
-12°C / 10°F
Humidity
58%
Altimeter
30.37" Hg
Pressure
1028.42 hPa
Previous

3 hours ago

KGRR 190653Z AUTO 30011G21KT 10SM CLR M04/M11 A3033 RMK AO2 PK WND 30028/0555 SLP283 T10441111
Observed
Feb-19 @ 06:53 UTC
Wind
  • 300° at 11 KTS
  • Gusting to 21 KTS
Visibility
10 SM
Flight Rules
VFR
Cloud Levels
  • Clear skies
Temperature
-4°C / 25°F
Dewpoint
-11°C / 12°F
Humidity
59%
Altimeter
30.33" Hg
Pressure
1027.12 hPa